sensor_id;sensor_type;location;lat;lon;timestamp;P1;durP1;ratioP1;P2;durP2;ratioP2
46755;SDS011;32506;52.826;-1.192;2024-01-10T00:01:31;4.97;;;1.52;;
46755;SDS011;32506;52.826;-1.192;2024-01-10T00:03:57;6.57;;;2.13;;
46755;SDS011;32506;52.826;-1.192;2024-01-10T00:06:23;6.07;;;1.90;;
46755;SDS011;32506;52.826;-1.192;2024-01-10T00:08:49;4.63;;;1.88;;
46755;SDS011;32506;52.826;-1.192;2024-01-10T00:11:15;7.10;;;1.83;;
46755;SDS011;32506;52.826;-1.192;2024-01-10T00:13:43;4.15;;;1.30;;
46755;SDS011;32506;52.826;-1.192;2024-01-10T00:16:11;4.32;;;1.60;;
46755;SDS011;32506;52.826;-1.192;2024-01-10T00:18:38;4.93;;;1.50;;
46755;SDS011;32506;52.826;-1.192;2024-01-10T00:21:05;4.95;;;1.92;;
46755;SDS011;32506;52.826;-1.192;2024-01-10T00:23:31;7.03;;;1.83;;
46755;SDS011;32506;52.826;-1.192;2024-01-10T00:25:56;3.88;;;2.17;;
46755;SDS011;32506;52.826;-1.192;2024-01-10T00:28:22;4.10;;;1.48;;
46755;SDS011;32506;52.826;-1.192;2024-01-10T00:30:47;4.00;;;1.48;;
46755;SDS011;32506;52.826;-1.192;2024-01-10T00:33:13;5.85;;;1.75;;
46755;SDS011;32506;52.826;-1.192;2024-01-10T00:35:39;5.97;;;1.92;;
46755;SDS011;32506;52.826;-1.192;2024-01-10T00:38:04;6.38;;;1.20;;
46755;SDS011;32506;52.826;-1.192;2024-01-10T00:40:30;2.92;;;1.60;;
46755;SDS011;32506;52.826;-1.192;2024-01-10T00:42:56;4.28;;;1.65;;
46755;SDS011;32506;52.826;-1.192;2024-01-10T00:45:21;3.88;;;1.40;;
46755;SDS011;32506;52.826;-1.192;2024-01-10T00:47:49;4.32;;;1.48;;
46755;SDS011;32506;52.826;-1.192;2024-01-10T00:50:15;6.20;;;1.80;;
46755;SDS011;32506;52.826;-1.192;2024-01-10T00:52:44;3.97;;;1.38;;
46755;SDS011;32506;52.826;-1.192;2024-01-10T00:55:12;3.55;;;2.00;;
46755;SDS011;32506;52.826;-1.192;2024-01-10T00:57:38;4.88;;;1.42;;
46755;SDS011;32506;52.826;-1.192;2024-01-10T01:00:07;4.10;;;1.98;;
46755;SDS011;32506;52.826;-1.192;2024-01-10T01:02:34;6.63;;;1.33;;
46755;SDS011;32506;52.826;-1.192;2024-01-10T01:05:00;5.75;;;1.70;;
46755;SDS011;32506;52.826;-1.192;2024-01-10T01:07:26;3.90;;;1.38;;
46755;SDS011;32506;52.826;-1.192;2024-01-10T01:09:51;4.43;;;1.17;;
46755;SDS011;32506;52.826;-1.192;2024-01-10T01:12:17;9.13;;;1.52;;
46755;SDS011;32506;52.826;-1.192;2024-01-10T01:14:42;4.72;;;1.38;;
46755;SDS011;32506;52.826;-1.192;2024-01-10T01:17:08;5.35;;;1.38;;
46755;SDS011;32506;52.826;-1.192;2024-01-10T01:19:33;4.72;;;1.20;;
46755;SDS011;32506;52.826;-1.192;2024-01-10T01:21:59;3.72;;;1.05;;
46755;SDS011;32506;52.826;-1.192;2024-01-10T01:24:26;3.35;;;1.45;;
46755;SDS011;32506;52.826;-1.192;2024-01-10T01:26:51;3.55;;;0.95;;
46755;SDS011;32506;52.826;-1.192;2024-01-10T01:29:17;2.60;;;1.40;;
46755;SDS011;32506;52.826;-1.192;2024-01-10T01:31:43;5.05;;;1.60;;
46755;SDS011;32506;52.826;-1.192;2024-01-10T01:34:08;5.22;;;1.30;;
46755;SDS011;32506;52.826;-1.192;2024-01-10T01:36:34;3.72;;;1.35;;
46755;SDS011;32506;52.826;-1.192;2024-01-10T01:38:59;3.42;;;1.30;;
46755;SDS011;32506;52.826;-1.192;2024-01-10T01:41:24;5.97;;;1.40;;
46755;SDS011;32506;52.826;-1.192;2024-01-10T01:43:50;3.63;;;1.52;;
46755;SDS011;32506;52.826;-1.192;2024-01-10T01:46:15;5.13;;;1.25;;
46755;SDS011;32506;52.826;-1.192;2024-01-10T01:48:41;2.28;;;0.90;;
46755;SDS011;32506;52.826;-1.192;2024-01-10T01:51:07;4.57;;;1.23;;
46755;SDS011;32506;52.826;-1.192;2024-01-10T01:53:35;1.98;;;0.80;;
46755;SDS011;32506;52.826;-1.192;2024-01-10T01:56:02;3.42;;;1.20;;
46755;SDS011;32506;52.826;-1.192;2024-01-10T01:58:31;5.10;;;1.17;;
46755;SDS011;32506;52.826;-1.192;2024-01-10T02:00:56;4.78;;;1.15;;
46755;SDS011;32506;52.826;-1.192;2024-01-10T02:03:23;2.03;;;1.02;;
46755;SDS011;32506;52.826;-1.192;2024-01-10T02:05:48;4.57;;;1.10;;
46755;SDS011;32506;52.826;-1.192;2024-01-10T02:08:14;3.97;;;1.17;;
46755;SDS011;32506;52.826;-1.192;2024-01-10T02:10:40;3.00;;;0.95;;
46755;SDS011;32506;52.826;-1.192;2024-01-10T02:13:05;4.00;;;1.27;;
46755;SDS011;32506;52.826;-1.192;2024-01-10T02:15:33;4.25;;;1.20;;
46755;SDS011;32506;52.826;-1.192;2024-01-10T02:18:00;5.35;;;1.10;;
46755;SDS011;32506;52.826;-1.192;2024-01-10T02:20:25;8.95;;;1.40;;
46755;SDS011;32506;52.826;-1.192;2024-01-10T02:22:51;6.65;;;1.10;;
46755;SDS011;32506;52.826;-1.192;2024-01-10T02:25:16;4.25;;;1.00;;
46755;SDS011;32506;52.826;-1.192;2024-01-10T02:27:41;3.78;;;0.90;;
46755;SDS011;32506;52.826;-1.192;2024-01-10T02:30:08;4.43;;;1.08;;
46755;SDS011;32506;52.826;-1.192;2024-01-10T02:32:34;6.78;;;1.33;;
46755;SDS011;32506;52.826;-1.192;2024-01-10T02:35:00;2.63;;;1.35;;
46755;SDS011;32506;52.826;-1.192;2024-01-10T02:37:25;4.30;;;1.00;;
46755;SDS011;32506;52.826;-1.192;2024-01-10T02:39:50;4.28;;;1.13;;
46755;SDS011;32506;52.826;-1.192;2024-01-10T02:42:16;3.10;;;0.98;;
46755;SDS011;32506;52.826;-1.192;2024-01-10T02:44:42;6.15;;;1.20;;
46755;SDS011;32506;52.826;-1.192;2024-01-10T02:47:07;3.53;;;1.10;;
46755;SDS011;32506;52.826;-1.192;2024-01-10T02:49:33;3.50;;;1.10;;
46755;SDS011;32506;52.826;-1.192;2024-01-10T02:51:59;3.17;;;1.17;;
46755;SDS011;32506;52.826;-1.192;2024-01-10T02:54:25;3.63;;;1.25;;
46755;SDS011;32506;52.826;-1.192;2024-01-10T02:56:50;4.47;;;1.10;;
46755;SDS011;32506;52.826;-1.192;2024-01-10T02:59:16;3.08;;;1.60;;
46755;SDS011;32506;52.826;-1.192;2024-01-10T03:01:41;2.33;;;1.20;;
46755;SDS011;32506;52.826;-1.192;2024-01-10T03:04:07;3.70;;;1.40;;
46755;SDS011;32506;52.826;-1.192;2024-01-10T03:06:32;3.25;;;1.27;;
46755;SDS011;32506;52.826;-1.192;2024-01-10T03:08:57;4.13;;;1.50;;
46755;SDS011;32506;52.826;-1.192;2024-01-10T03:11:23;4.70;;;1.88;;
46755;SDS011;32506;52.826;-1.192;2024-01-10T03:13:53;3.83;;;1.58;;
46755;SDS011;32506;52.826;-1.192;2024-01-10T03:16:27;3.53;;;1.50;;
46755;SDS011;32506;52.826;-1.192;2024-01-10T03:18:52;5.95;;;2.65;;
46755;SDS011;32506;52.826;-1.192;2024-01-10T03:21:18;3.38;;;1.30;;
46755;SDS011;32506;52.826;-1.192;2024-01-10T03:23:50;3.60;;;1.30;;
46755;SDS011;32506;52.826;-1.192;2024-01-10T03:26:15;3.45;;;1.55;;
46755;SDS011;32506;52.826;-1.192;2024-01-10T03:28:41;2.45;;;1.10;;
46755;SDS011;32506;52.826;-1.192;2024-01-10T03:31:06;4.13;;;1.30;;
46755;SDS011;32506;52.826;-1.192;2024-01-10T03:33:32;2.67;;;1.23;;
46755;SDS011;32506;52.826;-1.192;2024-01-10T03:35:57;3.55;;;1.20;;
46755;SDS011;32506;52.826;-1.192;2024-01-10T03:38:23;2.70;;;1.33;;
46755;SDS011;32506;52.826;-1.192;2024-01-10T03:40:48;3.65;;;1.60;;
46755;SDS011;32506;52.826;-1.192;2024-01-10T03:43:14;2.35;;;1.40;;
46755;SDS011;32506;52.826;-1.192;2024-01-10T03:45:41;6.45;;;2.17;;
46755;SDS011;32506;52.826;-1.192;2024-01-10T03:48:07;7.25;;;1.40;;
46755;SDS011;32506;52.826;-1.192;2024-01-10T03:50:32;3.45;;;1.10;;
46755;SDS011;32506;52.826;-1.192;2024-01-10T03:52:58;2.47;;;1.25;;
46755;SDS011;32506;52.826;-1.192;2024-01-10T03:55:23;3.00;;;1.42;;
46755;SDS011;32506;52.826;-1.192;2024-01-10T03:57:48;3.50;;;1.17;;
46755;SDS011;32506;52.826;-1.192;2024-01-10T04:00:14;6.07;;;2.08;;
46755;SDS011;32506;52.826;-1.192;2024-01-10T04:02:39;6.72;;;1.90;;
46755;SDS011;32506;52.826;-1.192;2024-01-10T04:05:08;2.13;;;1.00;;
46755;SDS011;32506;52.826;-1.192;2024-01-10T04:07:41;2.75;;;1.27;;
46755;SDS011;32506;52.826;-1.192;2024-01-10T04:10:10;3.20;;;1.25;;
46755;SDS011;32506;52.826;-1.192;2024-01-10T04:12:38;2.28;;;1.17;;
46755;SDS011;32506;52.826;-1.192;2024-01-10T04:15:10;4.07;;;1.30;;
46755;SDS011;32506;52.826;-1.192;2024-01-10T04:17:37;3.35;;;1.08;;
46755;SDS011;32506;52.826;-1.192;2024-01-10T04:20:02;2.70;;;1.13;;
46755;SDS011;32506;52.826;-1.192;2024-01-10T04:22:28;2.78;;;1.00;;
46755;SDS011;32506;52.826;-1.192;2024-01-10T04:24:56;3.03;;;1.08;;
46755;SDS011;32506;52.826;-1.192;2024-01-10T04:27:22;2.22;;;0.95;;
46755;SDS011;32506;52.826;-1.192;2024-01-10T04:29:48;2.78;;;1.30;;
46755;SDS011;32506;52.826;-1.192;2024-01-10T04:32:13;1.88;;;1.05;;
46755;SDS011;32506;52.826;-1.192;2024-01-10T04:34:39;3.50;;;1.10;;
46755;SDS011;32506;52.826;-1.192;2024-01-10T04:37:05;1.80;;;0.70;;
46755;SDS011;32506;52.826;-1.192;2024-01-10T04:39:32;2.42;;;0.88;;
46755;SDS011;32506;52.826;-1.192;2024-01-10T04:41:57;3.05;;;1.02;;
46755;SDS011;32506;52.826;-1.192;2024-01-10T04:44:23;2.75;;;0.80;;
46755;SDS011;32506;52.826;-1.192;2024-01-10T04:46:49;2.65;;;1.17;;
46755;SDS011;32506;52.826;-1.192;2024-01-10T04:49:14;4.30;;;0.90;;
46755;SDS011;32506;52.826;-1.192;2024-01-10T04:51:40;2.38;;;0.63;;
46755;SDS011;32506;52.826;-1.192;2024-01-10T04:54:05;2.15;;;0.65;;
46755;SDS011;32506;52.826;-1.192;2024-01-10T04:56:31;3.00;;;0.88;;
46755;SDS011;32506;52.826;-1.192;2024-01-10T04:58:56;2.45;;;0.73;;
46755;SDS011;32506;52.826;-1.192;2024-01-10T05:01:21;1.15;;;0.60;;
46755;SDS011;32506;52.826;-1.192;2024-01-10T05:03:48;2.88;;;0.90;;
46755;SDS011;32506;52.826;-1.192;2024-01-10T05:06:14;2.72;;;0.80;;
46755;SDS011;32506;52.826;-1.192;2024-01-10T05:08:39;3.13;;;0.90;;
46755;SDS011;32506;52.826;-1.192;2024-01-10T05:11:04;3.75;;;0.80;;
46755;SDS011;32506;52.826;-1.192;2024-01-10T05:13:30;3.58;;;0.70;;
46755;SDS011;32506;52.826;-1.192;2024-01-10T05:15:55;1.08;;;0.60;;
46755;SDS011;32506;52.826;-1.192;2024-01-10T05:18:21;2.25;;;0.75;;
46755;SDS011;32506;52.826;-1.192;2024-01-10T05:20:47;1.58;;;0.75;;
46755;SDS011;32506;52.826;-1.192;2024-01-10T05:23:13;1.98;;;0.60;;
46755;SDS011;32506;52.826;-1.192;2024-01-10T05:25:38;2.28;;;0.77;;
46755;SDS011;32506;52.826;-1.192;2024-01-10T05:28:04;2.30;;;0.73;;
46755;SDS011;32506;52.826;-1.192;2024-01-10T05:30:30;0.60;;;0.40;;
46755;SDS011;32506;52.826;-1.192;2024-01-10T05:32:56;2.92;;;0.90;;
46755;SDS011;32506;52.826;-1.192;2024-01-10T05:35:23;2.50;;;0.93;;
46755;SDS011;32506;52.826;-1.192;2024-01-10T05:37:50;3.10;;;0.70;;
46755;SDS011;32506;52.826;-1.192;2024-01-10T05:40:15;3.88;;;1.30;;
46755;SDS011;32506;52.826;-1.192;2024-01-10T05:42:40;3.13;;;0.70;;
46755;SDS011;32506;52.826;-1.192;2024-01-10T05:45:06;2.65;;;0.70;;
46755;SDS011;32506;52.826;-1.192;2024-01-10T05:47:32;1.27;;;0.65;;
46755;SDS011;32506;52.826;-1.192;2024-01-10T05:49:57;1.65;;;0.88;;
46755;SDS011;32506;52.826;-1.192;2024-01-10T05:52:22;1.98;;;0.70;;
46755;SDS011;32506;52.826;-1.192;2024-01-10T05:54:48;2.05;;;0.50;;
46755;SDS011;32506;52.826;-1.192;2024-01-10T05:57:16;1.67;;;0.80;;
46755;SDS011;32506;52.826;-1.192;2024-01-10T05:59:42;3.42;;;0.60;;
46755;SDS011;32506;52.826;-1.192;2024-01-10T06:02:07;1.52;;;0.40;;
46755;SDS011;32506;52.826;-1.192;2024-01-10T06:04:33;1.80;;;1.02;;
46755;SDS011;32506;52.826;-1.192;2024-01-10T06:06:58;1.20;;;0.50;;
46755;SDS011;32506;52.826;-1.192;2024-01-10T06:09:24;0.90;;;0.50;;
46755;SDS011;32506;52.826;-1.192;2024-01-10T06:11:49;1.55;;;0.55;;
46755;SDS011;32506;52.826;-1.192;2024-01-10T06:14:15;0.65;;;0.40;;
46755;SDS011;32506;52.826;-1.192;2024-01-10T06:16:41;2.05;;;0.88;;
46755;SDS011;32506;52.826;-1.192;2024-01-10T06:19:06;3.83;;;0.85;;
46755;SDS011;32506;52.826;-1.192;2024-01-10T06:21:31;1.63;;;0.82;;
46755;SDS011;32506;52.826;-1.192;2024-01-10T06:23:57;0.98;;;0.73;;
46755;SDS011;32506;52.826;-1.192;2024-01-10T06:26:22;2.60;;;0.68;;
46755;SDS011;32506;52.826;-1.192;2024-01-10T06:28:48;2.22;;;0.60;;
46755;SDS011;32506;52.826;-1.192;2024-01-10T06:31:13;3.60;;;0.95;;
46755;SDS011;32506;52.826;-1.192;2024-01-10T06:33:39;1.55;;;0.55;;
46755;SDS011;32506;52.826;-1.192;2024-01-10T06:36:04;1.35;;;0.50;;
46755;SDS011;32506;52.826;-1.192;2024-01-10T06:38:30;0.77;;;0.50;;
46755;SDS011;32506;52.826;-1.192;2024-01-10T06:40:56;1.55;;;0.60;;
46755;SDS011;32506;52.826;-1.192;2024-01-10T06:43:21;3.13;;;0.80;;
46755;SDS011;32506;52.826;-1.192;2024-01-10T06:45:47;1.33;;;0.40;;
46755;SDS011;32506;52.826;-1.192;2024-01-10T06:48:13;2.55;;;0.70;;
46755;SDS011;32506;52.826;-1.192;2024-01-10T06:50:38;3.92;;;0.90;;
46755;SDS011;32506;52.826;-1.192;2024-01-10T06:53:04;2.05;;;0.88;;
46755;SDS011;32506;52.826;-1.192;2024-01-10T06:55:29;2.00;;;0.70;;
46755;SDS011;32506;52.826;-1.192;2024-01-10T06:57:55;1.88;;;0.60;;
46755;SDS011;32506;52.826;-1.192;2024-01-10T07:00:21;2.63;;;0.80;;
46755;SDS011;32506;52.826;-1.192;2024-01-10T07:02:47;0.93;;;0.57;;
46755;SDS011;32506;52.826;-1.192;2024-01-10T07:05:14;3.03;;;0.90;;
46755;SDS011;32506;52.826;-1.192;2024-01-10T07:07:39;1.92;;;0.77;;
46755;SDS011;32506;52.826;-1.192;2024-01-10T07:10:05;2.50;;;1.35;;
46755;SDS011;32506;52.826;-1.192;2024-01-10T07:12:31;1.88;;;0.75;;
46755;SDS011;32506;52.826;-1.192;2024-01-10T07:14:58;4.30;;;0.75;;
46755;SDS011;32506;52.826;-1.192;2024-01-10T07:17:23;2.13;;;0.82;;
46755;SDS011;32506;52.826;-1.192;2024-01-10T07:19:49;2.15;;;0.60;;
46755;SDS011;32506;52.826;-1.192;2024-01-10T07:22:14;1.27;;;0.55;;
46755;SDS011;32506;52.826;-1.192;2024-01-10T07:24:40;1.90;;;0.68;;
46755;SDS011;32506;52.826;-1.192;2024-01-10T07:27:05;1.48;;;0.60;;
46755;SDS011;32506;52.826;-1.192;2024-01-10T07:29:32;3.67;;;0.70;;
46755;SDS011;32506;52.826;-1.192;2024-01-10T07:31:57;2.83;;;0.77;;
46755;SDS011;32506;52.826;-1.192;2024-01-10T07:34:23;1.65;;;0.63;;
46755;SDS011;32506;52.826;-1.192;2024-01-10T07:36:48;2.88;;;0.95;;
46755;SDS011;32506;52.826;-1.192;2024-01-10T07:39:14;1.63;;;0.70;;
46755;SDS011;32506;52.826;-1.192;2024-01-10T07:41:45;3.78;;;0.65;;
46755;SDS011;32506;52.826;-1.192;2024-01-10T07:44:11;1.58;;;0.70;;
46755;SDS011;32506;52.826;-1.192;2024-01-10T07:46:37;1.85;;;0.60;;
46755;SDS011;32506;52.826;-1.192;2024-01-10T07:49:06;1.42;;;0.50;;
46755;SDS011;32506;52.826;-1.192;2024-01-10T07:51:31;3.10;;;0.95;;
46755;SDS011;32506;52.826;-1.192;2024-01-10T07:53:57;0.70;;;0.52;;
46755;SDS011;32506;52.826;-1.192;2024-01-10T07:56:24;3.33;;;0.80;;
46755;SDS011;32506;52.826;-1.192;2024-01-10T07:58:49;2.70;;;0.85;;
46755;SDS011;32506;52.826;-1.192;2024-01-10T08:01:16;1.40;;;0.52;;
46755;SDS011;32506;52.826;-1.192;2024-01-10T08:03:42;4.05;;;0.90;;
46755;SDS011;32506;52.826;-1.192;2024-01-10T08:06:07;1.10;;;0.60;;
46755;SDS011;32506;52.826;-1.192;2024-01-10T08:08:33;2.08;;;0.60;;
46755;SDS011;32506;52.826;-1.192;2024-01-10T08:10:58;1.23;;;0.63;;
46755;SDS011;32506;52.826;-1.192;2024-01-10T08:13:24;1.92;;;0.70;;
46755;SDS011;32506;52.826;-1.192;2024-01-10T08:15:49;0.88;;;0.52;;
46755;SDS011;32506;52.826;-1.192;2024-01-10T08:18:16;2.90;;;0.70;;
46755;SDS011;32506;52.826;-1.192;2024-01-10T08:20:41;3.15;;;0.60;;
46755;SDS011;32506;52.826;-1.192;2024-01-10T08:23:06;0.98;;;0.60;;
46755;SDS011;32506;52.826;-1.192;2024-01-10T08:25:33;2.70;;;1.55;;
46755;SDS011;32506;52.826;-1.192;2024-01-10T08:27:58;1.25;;;0.65;;
46755;SDS011;32506;52.826;-1.192;2024-01-10T08:30:24;2.00;;;0.88;;
46755;SDS011;32506;52.826;-1.192;2024-01-10T08:32:50;3.10;;;0.80;;
46755;SDS011;32506;52.826;-1.192;2024-01-10T08:35:15;1.83;;;0.80;;
46755;SDS011;32506;52.826;-1.192;2024-01-10T08:37:41;2.35;;;0.80;;
46755;SDS011;32506;52.826;-1.192;2024-01-10T08:40:11;1.80;;;0.60;;
46755;SDS011;32506;52.826;-1.192;2024-01-10T08:42:39;2.30;;;0.80;;
46755;SDS011;32506;52.826;-1.192;2024-01-10T08:45:06;2.28;;;0.80;;
46755;SDS011;32506;52.826;-1.192;2024-01-10T08:47:34;2.50;;;0.75;;
46755;SDS011;32506;52.826;-1.192;2024-01-10T08:50:01;1.95;;;0.60;;
46755;SDS011;32506;52.826;-1.192;2024-01-10T08:52:27;2.75;;;0.77;;
46755;SDS011;32506;52.826;-1.192;2024-01-10T08:54:52;2.67;;;0.90;;
46755;SDS011;32506;52.826;-1.192;2024-01-10T08:57:18;3.00;;;0.70;;
46755;SDS011;32506;52.826;-1.192;2024-01-10T08:59:43;1.35;;;0.60;;
46755;SDS011;32506;52.826;-1.192;2024-01-10T09:02:09;1.55;;;0.50;;
46755;SDS011;32506;52.826;-1.192;2024-01-10T09:04:34;1.35;;;0.70;;
46755;SDS011;32506;52.826;-1.192;2024-01-10T09:06:59;1.25;;;0.70;;
46755;SDS011;32506;52.826;-1.192;2024-01-10T09:09:25;1.67;;;0.70;;
46755;SDS011;32506;52.826;-1.192;2024-01-10T09:11:50;1.92;;;0.57;;
46755;SDS011;32506;52.826;-1.192;2024-01-10T09:14:16;1.48;;;0.47;;
46755;SDS011;32506;52.826;-1.192;2024-01-10T09:16:41;2.45;;;0.90;;
46755;SDS011;32506;52.826;-1.192;2024-01-10T09:19:07;0.75;;;0.50;;
46755;SDS011;32506;52.826;-1.192;2024-01-10T09:21:32;1.85;;;0.70;;
46755;SDS011;32506;52.826;-1.192;2024-01-10T09:23:58;1.77;;;0.73;;
46755;SDS011;32506;52.826;-1.192;2024-01-10T09:26:23;1.90;;;0.70;;
46755;SDS011;32506;52.826;-1.192;2024-01-10T09:28:49;3.35;;;0.80;;
46755;SDS011;32506;52.826;-1.192;2024-01-10T09:31:14;2.40;;;1.08;;
46755;SDS011;32506;52.826;-1.192;2024-01-10T09:33:40;1.55;;;0.77;;
46755;SDS011;32506;52.826;-1.192;2024-01-10T09:36:06;1.33;;;0.65;;
46755;SDS011;32506;52.826;-1.192;2024-01-10T09:38:35;1.52;;;0.80;;
46755;SDS011;32506;52.826;-1.192;2024-01-10T09:41:01;0.88;;;0.55;;
46755;SDS011;32506;52.826;-1.192;2024-01-10T09:43:29;1.80;;;0.70;;
46755;SDS011;32506;52.826;-1.192;2024-01-10T09:45:55;2.90;;;0.65;;
46755;SDS011;32506;52.826;-1.192;2024-01-10T09:48:23;1.58;;;0.80;;
46755;SDS011;32506;52.826;-1.192;2024-01-10T09:50:50;3.42;;;0.98;;
46755;SDS011;32506;52.826;-1.192;2024-01-10T09:53:23;2.45;;;0.80;;
46755;SDS011;32506;52.826;-1.192;2024-01-10T09:55:52;1.67;;;0.73;;
46755;SDS011;32506;52.826;-1.192;2024-01-10T09:58:22;2.20;;;0.68;;
46755;SDS011;32506;52.826;-1.192;2024-01-10T10:00:49;1.42;;;0.70;;
46755;SDS011;32506;52.826;-1.192;2024-01-10T10:03:14;1.17;;;0.60;;
46755;SDS011;32506;52.826;-1.192;2024-01-10T10:05:43;1.10;;;0.60;;
46755;SDS011;32506;52.826;-1.192;2024-01-10T10:08:10;2.10;;;0.70;;
46755;SDS011;32506;52.826;-1.192;2024-01-10T10:10:36;3.47;;;0.70;;
46755;SDS011;32506;52.826;-1.192;2024-01-10T10:13:07;1.52;;;0.77;;
46755;SDS011;32506;52.826;-1.192;2024-01-10T10:15:35;2.13;;;0.85;;
46755;SDS011;32506;52.826;-1.192;2024-01-10T10:18:01;2.53;;;0.75;;
46755;SDS011;32506;52.826;-1.192;2024-01-10T10:20:28;2.63;;;1.27;;
46755;SDS011;32506;52.826;-1.192;2024-01-10T10:25:31;2.15;;;0.68;;
46755;SDS011;32506;52.826;-1.192;2024-01-10T10:28:01;1.65;;;0.85;;
46755;SDS011;32506;52.826;-1.192;2024-01-10T10:30:28;2.25;;;0.95;;
46755;SDS011;32506;52.826;-1.192;2024-01-10T10:32:55;3.40;;;1.10;;
46755;SDS011;32506;52.826;-1.192;2024-01-10T10:35:21;2.50;;;1.08;;
46755;SDS011;32506;52.826;-1.192;2024-01-10T10:37:47;1.85;;;0.90;;
46755;SDS011;32506;52.826;-1.192;2024-01-10T10:40:14;2.00;;;0.88;;
46755;SDS011;32506;52.826;-1.192;2024-01-10T10:42:43;2.22;;;1.08;;
46755;SDS011;32506;52.826;-1.192;2024-01-10T10:45:12;3.10;;;1.52;;
46755;SDS011;32506;52.826;-1.192;2024-01-10T10:47:41;2.17;;;1.00;;
46755;SDS011;32506;52.826;-1.192;2024-01-10T10:50:12;2.85;;;1.02;;
46755;SDS011;32506;52.826;-1.192;2024-01-10T10:52:42;5.03;;;0.90;;
46755;SDS011;32506;52.826;-1.192;2024-01-10T10:55:13;3.17;;;0.90;;
46755;SDS011;32506;52.826;-1.192;2024-01-10T10:57:41;2.55;;;0.75;;
46755;SDS011;32506;52.826;-1.192;2024-01-10T11:00:10;1.40;;;0.75;;
46755;SDS011;32506;52.826;-1.192;2024-01-10T11:02:40;1.65;;;0.70;;
46755;SDS011;32506;52.826;-1.192;2024-01-10T11:05:06;2.05;;;1.00;;
46755;SDS011;32506;52.826;-1.192;2024-01-10T11:07:39;2.05;;;0.80;;
46755;SDS011;32506;52.826;-1.192;2024-01-10T11:10:08;1.50;;;0.90;;
46755;SDS011;32506;52.826;-1.192;2024-01-10T11:15:24;2.55;;;0.82;;
46755;SDS011;32506;52.826;-1.192;2024-01-10T11:20:51;1.67;;;0.93;;
46755;SDS011;32506;52.826;-1.192;2024-01-10T11:23:34;2.33;;;0.70;;
46755;SDS011;32506;52.826;-1.192;2024-01-10T11:26:05;1.90;;;0.80;;
46755;SDS011;32506;52.826;-1.192;2024-01-10T11:28:31;3.28;;;0.90;;
46755;SDS011;32506;52.826;-1.192;2024-01-10T11:30:58;1.73;;;0.80;;
46755;SDS011;32506;52.826;-1.192;2024-01-10T11:33:25;1.75;;;0.80;;
46755;SDS011;32506;52.826;-1.192;2024-01-10T11:38:40;1.15;;;0.68;;
46755;SDS011;32506;52.826;-1.192;2024-01-10T11:41:09;0.82;;;0.57;;
46755;SDS011;32506;52.826;-1.192;2024-01-10T11:43:35;2.35;;;0.90;;
46755;SDS011;32506;52.826;-1.192;2024-01-10T11:46:01;1.45;;;0.70;;
46755;SDS011;32506;52.826;-1.192;2024-01-10T11:48:30;1.60;;;0.70;;
46755;SDS011;32506;52.826;-1.192;2024-01-10T11:50:57;2.28;;;0.80;;
46755;SDS011;32506;52.826;-1.192;2024-01-10T11:53:41;1.65;;;0.73;;
46755;SDS011;32506;52.826;-1.192;2024-01-10T11:56:14;1.48;;;0.70;;
46755;SDS011;32506;52.826;-1.192;2024-01-10T12:01:27;1.80;;;0.90;;
46755;SDS011;32506;52.826;-1.192;2024-01-10T12:03:52;1.65;;;0.90;;
46755;SDS011;32506;52.826;-1.192;2024-01-10T12:06:20;2.08;;;0.80;;
46755;SDS011;32506;52.826;-1.192;2024-01-10T12:08:46;2.08;;;1.00;;
46755;SDS011;32506;52.826;-1.192;2024-01-10T12:11:12;3.50;;;1.08;;
46755;SDS011;32506;52.826;-1.192;2024-01-10T12:13:37;2.22;;;1.02;;
46755;SDS011;32506;52.826;-1.192;2024-01-10T12:16:03;1.75;;;0.80;;
46755;SDS011;32506;52.826;-1.192;2024-01-10T12:18:28;1.52;;;0.80;;
46755;SDS011;32506;52.826;-1.192;2024-01-10T12:20:54;1.52;;;0.77;;
46755;SDS011;32506;52.826;-1.192;2024-01-10T12:23:19;2.17;;;1.00;;
46755;SDS011;32506;52.826;-1.192;2024-01-10T12:25:45;1.98;;;1.00;;
46755;SDS011;32506;52.826;-1.192;2024-01-10T12:28:15;2.45;;;0.70;;
46755;SDS011;32506;52.826;-1.192;2024-01-10T12:30:41;2.20;;;0.90;;
46755;SDS011;32506;52.826;-1.192;2024-01-10T12:33:08;1.83;;;0.80;;
46755;SDS011;32506;52.826;-1.192;2024-01-10T12:35:34;1.25;;;0.50;;
46755;SDS011;32506;52.826;-1.192;2024-01-10T12:37:59;2.70;;;1.05;;
46755;SDS011;32506;52.826;-1.192;2024-01-10T12:40:25;2.10;;;0.88;;
46755;SDS011;32506;52.826;-1.192;2024-01-10T12:43:01;1.85;;;0.85;;
46755;SDS011;32506;52.826;-1.192;2024-01-10T12:45:30;1.58;;;0.75;;
46755;SDS011;32506;52.826;-1.192;2024-01-10T12:47:56;2.05;;;0.70;;
46755;SDS011;32506;52.826;-1.192;2024-01-10T12:50:22;2.13;;;1.00;;
46755;SDS011;32506;52.826;-1.192;2024-01-10T12:52:50;2.17;;;0.90;;
46755;SDS011;32506;52.826;-1.192;2024-01-10T12:55:15;3.22;;;1.08;;
46755;SDS011;32506;52.826;-1.192;2024-01-10T12:57:42;1.92;;;0.85;;
46755;SDS011;32506;52.826;-1.192;2024-01-10T13:00:08;2.50;;;1.10;;
46755;SDS011;32506;52.826;-1.192;2024-01-10T13:02:35;2.17;;;0.95;;
46755;SDS011;32506;52.826;-1.192;2024-01-10T13:05:08;1.63;;;1.00;;
46755;SDS011;32506;52.826;-1.192;2024-01-10T13:07:36;1.02;;;0.73;;
46755;SDS011;32506;52.826;-1.192;2024-01-10T13:10:02;2.17;;;1.00;;
46755;SDS011;32506;52.826;-1.192;2024-01-10T13:12:27;1.65;;;0.70;;
46755;SDS011;32506;52.826;-1.192;2024-01-10T13:14:53;1.17;;;0.82;;
46755;SDS011;32506;52.826;-1.192;2024-01-10T13:17:18;2.40;;;1.10;;
46755;SDS011;32506;52.826;-1.192;2024-01-10T13:19:45;1.77;;;0.90;;
46755;SDS011;32506;52.826;-1.192;2024-01-10T13:22:13;1.70;;;0.95;;
46755;SDS011;32506;52.826;-1.192;2024-01-10T13:24:41;1.63;;;0.85;;
46755;SDS011;32506;52.826;-1.192;2024-01-10T13:27:07;2.20;;;0.98;;
46755;SDS011;32506;52.826;-1.192;2024-01-10T13:29:34;1.63;;;0.93;;
46755;SDS011;32506;52.826;-1.192;2024-01-10T13:32:02;1.90;;;0.88;;
46755;SDS011;32506;52.826;-1.192;2024-01-10T13:34:28;2.13;;;0.98;;
46755;SDS011;32506;52.826;-1.192;2024-01-10T13:36:53;2.38;;;1.30;;
46755;SDS011;32506;52.826;-1.192;2024-01-10T13:39:19;2.65;;;1.77;;
46755;SDS011;32506;52.826;-1.192;2024-01-10T13:41:44;2.53;;;1.15;;
46755;SDS011;32506;52.826;-1.192;2024-01-10T13:44:10;1.73;;;0.95;;
46755;SDS011;32506;52.826;-1.192;2024-01-10T13:46:35;1.65;;;0.95;;
46755;SDS011;32506;52.826;-1.192;2024-01-10T13:49:01;4.10;;;1.40;;
46755;SDS011;32506;52.826;-1.192;2024-01-10T13:51:26;1.77;;;1.20;;
46755;SDS011;32506;52.826;-1.192;2024-01-10T13:53:52;3.92;;;1.73;;
46755;SDS011;32506;52.826;-1.192;2024-01-10T13:56:17;2.22;;;1.10;;
46755;SDS011;32506;52.826;-1.192;2024-01-10T13:58:43;1.80;;;0.95;;
46755;SDS011;32506;52.826;-1.192;2024-01-10T14:01:08;2.22;;;1.42;;
46755;SDS011;32506;52.826;-1.192;2024-01-10T14:03:34;3.35;;;1.23;;
46755;SDS011;32506;52.826;-1.192;2024-01-10T14:05:59;1.95;;;1.20;;
46755;SDS011;32506;52.826;-1.192;2024-01-10T14:08:25;2.20;;;1.55;;
46755;SDS011;32506;52.826;-1.192;2024-01-10T14:10:50;3.40;;;1.52;;
46755;SDS011;32506;52.826;-1.192;2024-01-10T14:13:16;2.47;;;1.30;;
46755;SDS011;32506;52.826;-1.192;2024-01-10T14:15:41;1.90;;;1.10;;
46755;SDS011;32506;52.826;-1.192;2024-01-10T14:18:07;2.80;;;1.33;;
46755;SDS011;32506;52.826;-1.192;2024-01-10T14:20:32;2.38;;;1.33;;
46755;SDS011;32506;52.826;-1.192;2024-01-10T14:22:58;5.25;;;1.80;;
46755;SDS011;32506;52.826;-1.192;2024-01-10T14:25:24;2.38;;;1.52;;
46755;SDS011;32506;52.826;-1.192;2024-01-10T14:27:51;3.15;;;1.35;;
46755;SDS011;32506;52.826;-1.192;2024-01-10T14:30:17;2.17;;;1.15;;
46755;SDS011;32506;52.826;-1.192;2024-01-10T14:32:44;3.50;;;1.88;;
46755;SDS011;32506;52.826;-1.192;2024-01-10T14:35:12;2.80;;;1.42;;
46755;SDS011;32506;52.826;-1.192;2024-01-10T14:37:38;2.83;;;1.67;;
46755;SDS011;32506;52.826;-1.192;2024-01-10T14:40:04;3.10;;;1.70;;
46755;SDS011;32506;52.826;-1.192;2024-01-10T14:42:31;2.47;;;1.48;;